首页
METAR-TAF:

METAR-TAF

机场 :

Greenwood, 密西西比州, 美国

纬度: 33-29-33N, 经度: 090-05-01W, 海拔: 47米

当前天气观测

该预报发布于9分钟前的04:53 UTC
静风
温度 -2°C
湿度 86%
气压 1030 hPa
能見度: 16.1公里
天空无云

METAR: KGWO 220453Z AUTO 00000KT 10SM CLR M02/M04 A3043 RMK AO2 SLP306 T10171044

时间: 23:02 (05:02 UTC)

预报

该预报发布于5小时和42分钟前的23:20 UTC
预报有效从22日的 00点(UTC)到 22日的 24点(UTC)
风速4节,风向东转东南
能見度: 10公里
多云层高于25000英尺

TAF: KGWO 212320Z 2200/2224 12004KT P6SM BKN250

超过4000个机场的气象观测和天气预报(METAR&TAF报告)。

可查询的气象台以黄色和红色小点在地图上表示。

将鼠标移到小点上方,可查看气象台名称。

然后点击查看天气观测和预报。

如需切换地图:点击带黑十字的绿色按钮放大地图;点击带横线的绿色按钮缩小地图;或者点击绿色箭头查看邻近地区的地图。


METAR-TAF: